sensor_id;sensor_type;location;lat;lon;timestamp;P1;durP1;ratioP1;P2;durP2;ratioP2
46036;SDS011;31769;49.304;8.428;2023-09-19T00:00:57;3.27;;;1.40;;
46036;SDS011;31769;49.304;8.428;2023-09-19T00:03:58;1.75;;;1.05;;
46036;SDS011;31769;49.304;8.428;2023-09-19T00:06:59;4.05;;;1.20;;
46036;SDS011;31769;49.304;8.428;2023-09-19T00:10:02;5.47;;;1.30;;
46036;SDS011;31769;49.304;8.428;2023-09-19T00:13:03;4.60;;;1.10;;
46036;SDS011;31769;49.304;8.428;2023-09-19T00:16:10;2.65;;;1.15;;
46036;SDS011;31769;49.304;8.428;2023-09-19T00:19:12;6.43;;;1.55;;
46036;SDS011;31769;49.304;8.428;2023-09-19T00:22:14;5.03;;;1.25;;
46036;SDS011;31769;49.304;8.428;2023-09-19T00:25:16;5.00;;;1.42;;
46036;SDS011;31769;49.304;8.428;2023-09-19T00:28:17;3.13;;;1.35;;
46036;SDS011;31769;49.304;8.428;2023-09-19T00:31:19;3.65;;;1.63;;
46036;SDS011;31769;49.304;8.428;2023-09-19T00:34:25;5.75;;;1.83;;
46036;SDS011;31769;49.304;8.428;2023-09-19T00:37:26;6.05;;;1.65;;
46036;SDS011;31769;49.304;8.428;2023-09-19T00:40:26;4.30;;;1.63;;
46036;SDS011;31769;49.304;8.428;2023-09-19T00:43:27;6.20;;;1.65;;
46036;SDS011;31769;49.304;8.428;2023-09-19T00:46:28;5.97;;;1.63;;
46036;SDS011;31769;49.304;8.428;2023-09-19T00:49:29;8.30;;;1.67;;
46036;SDS011;31769;49.304;8.428;2023-09-19T00:52:32;3.90;;;1.38;;
46036;SDS011;31769;49.304;8.428;2023-09-19T00:55:34;3.67;;;1.38;;
46036;SDS011;31769;49.304;8.428;2023-09-19T00:58:37;4.57;;;1.65;;
46036;SDS011;31769;49.304;8.428;2023-09-19T01:01:38;4.53;;;1.55;;
46036;SDS011;31769;49.304;8.428;2023-09-19T01:04:40;3.75;;;1.52;;
46036;SDS011;31769;49.304;8.428;2023-09-19T01:07:41;7.40;;;1.92;;
46036;SDS011;31769;49.304;8.428;2023-09-19T01:10:52;5.30;;;1.42;;
46036;SDS011;31769;49.304;8.428;2023-09-19T01:14:10;5.55;;;1.88;;
46036;SDS011;31769;49.304;8.428;2023-09-19T01:17:27;5.82;;;1.73;;
46036;SDS011;31769;49.304;8.428;2023-09-19T01:30:29;5.05;;;1.50;;
46036;SDS011;31769;49.304;8.428;2023-09-19T01:33:59;6.25;;;1.50;;
46036;SDS011;31769;49.304;8.428;2023-09-19T01:37:01;2.78;;;1.33;;
46036;SDS011;31769;49.304;8.428;2023-09-19T01:40:02;5.60;;;1.98;;
46036;SDS011;31769;49.304;8.428;2023-09-19T01:43:23;6.38;;;1.45;;
46036;SDS011;31769;49.304;8.428;2023-09-19T01:46:33;4.35;;;1.70;;
46036;SDS011;31769;49.304;8.428;2023-09-19T01:49:50;3.22;;;1.60;;
46036;SDS011;31769;49.304;8.428;2023-09-19T01:53:07;3.33;;;1.52;;
46036;SDS011;31769;49.304;8.428;2023-09-19T01:56:16;5.32;;;1.77;;
46036;SDS011;31769;49.304;8.428;2023-09-19T01:59:25;4.25;;;1.30;;
46036;SDS011;31769;49.304;8.428;2023-09-19T02:02:35;2.20;;;1.00;;
46036;SDS011;31769;49.304;8.428;2023-09-19T02:05:38;3.30;;;1.42;;
46036;SDS011;31769;49.304;8.428;2023-09-19T02:08:39;2.10;;;1.35;;
46036;SDS011;31769;49.304;8.428;2023-09-19T02:11:40;3.72;;;1.50;;
46036;SDS011;31769;49.304;8.428;2023-09-19T02:14:42;3.42;;;1.42;;
46036;SDS011;31769;49.304;8.428;2023-09-19T02:17:42;3.55;;;1.00;;
46036;SDS011;31769;49.304;8.428;2023-09-19T02:20:44;3.00;;;1.38;;
46036;SDS011;31769;49.304;8.428;2023-09-19T02:23:46;3.50;;;1.25;;
46036;SDS011;31769;49.304;8.428;2023-09-19T02:26:47;3.08;;;1.25;;
46036;SDS011;31769;49.304;8.428;2023-09-19T02:29:48;3.60;;;1.17;;
46036;SDS011;31769;49.304;8.428;2023-09-19T02:32:50;5.72;;;1.48;;
46036;SDS011;31769;49.304;8.428;2023-09-19T02:35:54;3.40;;;1.33;;
46036;SDS011;31769;49.304;8.428;2023-09-19T02:38:58;3.53;;;1.52;;
46036;SDS011;31769;49.304;8.428;2023-09-19T02:41:58;2.80;;;1.23;;
46036;SDS011;31769;49.304;8.428;2023-09-19T02:44:59;7.88;;;1.70;;
46036;SDS011;31769;49.304;8.428;2023-09-19T02:48:00;4.30;;;1.50;;
46036;SDS011;31769;49.304;8.428;2023-09-19T02:51:04;5.22;;;1.55;;
46036;SDS011;31769;49.304;8.428;2023-09-19T02:54:05;4.00;;;1.50;;
46036;SDS011;31769;49.304;8.428;2023-09-19T02:57:06;2.50;;;1.48;;
46036;SDS011;31769;49.304;8.428;2023-09-19T03:00:08;3.38;;;1.45;;
46036;SDS011;31769;49.304;8.428;2023-09-19T03:03:13;3.28;;;1.38;;
46036;SDS011;31769;49.304;8.428;2023-09-19T03:06:15;1.73;;;1.33;;
46036;SDS011;31769;49.304;8.428;2023-09-19T03:09:17;4.47;;;1.52;;
46036;SDS011;31769;49.304;8.428;2023-09-19T03:12:19;3.58;;;1.65;;
46036;SDS011;31769;49.304;8.428;2023-09-19T03:15:20;4.40;;;1.60;;
46036;SDS011;31769;49.304;8.428;2023-09-19T03:18:23;3.92;;;1.63;;
46036;SDS011;31769;49.304;8.428;2023-09-19T03:21:26;3.42;;;1.75;;
46036;SDS011;31769;49.304;8.428;2023-09-19T03:24:30;4.15;;;1.50;;
46036;SDS011;31769;49.304;8.428;2023-09-19T03:27:32;3.05;;;1.50;;
46036;SDS011;31769;49.304;8.428;2023-09-19T03:30:33;5.80;;;1.73;;
46036;SDS011;31769;49.304;8.428;2023-09-19T03:33:36;4.65;;;1.50;;
46036;SDS011;31769;49.304;8.428;2023-09-19T03:36:37;3.90;;;1.60;;
46036;SDS011;31769;49.304;8.428;2023-09-19T03:39:38;6.35;;;1.60;;
46036;SDS011;31769;49.304;8.428;2023-09-19T03:42:39;4.75;;;1.65;;
46036;SDS011;31769;49.304;8.428;2023-09-19T03:45:43;4.00;;;1.77;;
46036;SDS011;31769;49.304;8.428;2023-09-19T03:48:45;3.63;;;1.70;;
46036;SDS011;31769;49.304;8.428;2023-09-19T03:51:46;3.78;;;1.40;;
46036;SDS011;31769;49.304;8.428;2023-09-19T03:54:46;3.15;;;1.70;;
46036;SDS011;31769;49.304;8.428;2023-09-19T03:57:48;5.20;;;2.00;;
46036;SDS011;31769;49.304;8.428;2023-09-19T04:00:50;7.60;;;1.50;;
46036;SDS011;31769;49.304;8.428;2023-09-19T04:03:51;5.05;;;2.08;;
46036;SDS011;31769;49.304;8.428;2023-09-19T04:06:53;2.40;;;1.30;;
46036;SDS011;31769;49.304;8.428;2023-09-19T04:09:54;2.55;;;1.42;;
46036;SDS011;31769;49.304;8.428;2023-09-19T04:12:55;4.20;;;1.60;;
46036;SDS011;31769;49.304;8.428;2023-09-19T04:15:56;3.10;;;1.75;;
46036;SDS011;31769;49.304;8.428;2023-09-19T04:18:57;4.65;;;1.88;;
46036;SDS011;31769;49.304;8.428;2023-09-19T04:21:58;7.30;;;1.95;;
46036;SDS011;31769;49.304;8.428;2023-09-19T04:24:59;4.00;;;1.70;;
46036;SDS011;31769;49.304;8.428;2023-09-19T04:28:00;4.65;;;2.08;;
46036;SDS011;31769;49.304;8.428;2023-09-19T04:31:00;4.07;;;1.92;;
46036;SDS011;31769;49.304;8.428;2023-09-19T04:34:01;2.80;;;1.70;;
46036;SDS011;31769;49.304;8.428;2023-09-19T04:37:03;4.30;;;1.98;;
46036;SDS011;31769;49.304;8.428;2023-09-19T04:40:04;4.70;;;2.00;;
46036;SDS011;31769;49.304;8.428;2023-09-19T04:43:17;5.95;;;1.90;;
46036;SDS011;31769;49.304;8.428;2023-09-19T04:46:17;8.18;;;2.53;;
46036;SDS011;31769;49.304;8.428;2023-09-19T04:49:18;4.22;;;2.53;;
46036;SDS011;31769;49.304;8.428;2023-09-19T04:52:19;5.38;;;2.25;;
46036;SDS011;31769;49.304;8.428;2023-09-19T04:55:20;3.25;;;2.08;;
46036;SDS011;31769;49.304;8.428;2023-09-19T04:58:21;7.57;;;2.45;;
46036;SDS011;31769;49.304;8.428;2023-09-19T05:01:22;7.22;;;2.28;;
46036;SDS011;31769;49.304;8.428;2023-09-19T05:04:23;3.83;;;2.13;;
46036;SDS011;31769;49.304;8.428;2023-09-19T05:07:24;9.82;;;1.88;;
46036;SDS011;31769;49.304;8.428;2023-09-19T05:10:26;4.95;;;2.00;;
46036;SDS011;31769;49.304;8.428;2023-09-19T05:13:26;4.25;;;2.15;;
46036;SDS011;31769;49.304;8.428;2023-09-19T05:16:28;7.70;;;2.25;;
46036;SDS011;31769;49.304;8.428;2023-09-19T05:19:29;4.63;;;2.40;;
46036;SDS011;31769;49.304;8.428;2023-09-19T05:22:30;3.45;;;1.92;;
46036;SDS011;31769;49.304;8.428;2023-09-19T05:25:33;2.47;;;1.70;;
46036;SDS011;31769;49.304;8.428;2023-09-19T05:28:37;6.07;;;2.10;;
46036;SDS011;31769;49.304;8.428;2023-09-19T05:31:38;4.30;;;1.65;;
46036;SDS011;31769;49.304;8.428;2023-09-19T05:34:41;4.53;;;1.70;;
46036;SDS011;31769;49.304;8.428;2023-09-19T05:37:42;5.05;;;1.90;;
46036;SDS011;31769;49.304;8.428;2023-09-19T05:40:42;5.85;;;1.63;;
46036;SDS011;31769;49.304;8.428;2023-09-19T05:43:45;5.47;;;1.80;;
46036;SDS011;31769;49.304;8.428;2023-09-19T05:46:45;6.53;;;2.17;;
46036;SDS011;31769;49.304;8.428;2023-09-19T05:49:48;5.65;;;1.60;;
46036;SDS011;31769;49.304;8.428;2023-09-19T05:52:51;3.70;;;1.85;;
46036;SDS011;31769;49.304;8.428;2023-09-19T05:55:53;7.95;;;2.10;;
46036;SDS011;31769;49.304;8.428;2023-09-19T05:58:54;7.18;;;1.90;;
46036;SDS011;31769;49.304;8.428;2023-09-19T06:01:54;4.65;;;1.90;;
46036;SDS011;31769;49.304;8.428;2023-09-19T06:04:55;8.55;;;1.90;;
46036;SDS011;31769;49.304;8.428;2023-09-19T06:07:57;6.78;;;1.85;;
46036;SDS011;31769;49.304;8.428;2023-09-19T06:11:00;7.03;;;2.03;;
46036;SDS011;31769;49.304;8.428;2023-09-19T06:14:04;4.90;;;2.08;;
46036;SDS011;31769;49.304;8.428;2023-09-19T06:17:04;5.30;;;2.10;;
46036;SDS011;31769;49.304;8.428;2023-09-19T06:20:05;7.75;;;2.08;;
46036;SDS011;31769;49.304;8.428;2023-09-19T06:23:13;5.55;;;2.38;;
46036;SDS011;31769;49.304;8.428;2023-09-19T06:26:14;8.40;;;2.30;;
46036;SDS011;31769;49.304;8.428;2023-09-19T06:29:15;6.55;;;2.10;;
46036;SDS011;31769;49.304;8.428;2023-09-19T06:32:16;7.65;;;2.17;;
46036;SDS011;31769;49.304;8.428;2023-09-19T06:35:16;6.07;;;1.92;;
46036;SDS011;31769;49.304;8.428;2023-09-19T06:38:17;5.95;;;1.70;;
46036;SDS011;31769;49.304;8.428;2023-09-19T06:41:19;6.22;;;1.73;;
46036;SDS011;31769;49.304;8.428;2023-09-19T06:44:24;5.95;;;1.65;;
46036;SDS011;31769;49.304;8.428;2023-09-19T06:47:25;6.28;;;1.50;;
46036;SDS011;31769;49.304;8.428;2023-09-19T06:50:26;3.80;;;1.55;;
46036;SDS011;31769;49.304;8.428;2023-09-19T06:53:28;4.30;;;1.77;;
46036;SDS011;31769;49.304;8.428;2023-09-19T06:56:31;4.70;;;1.95;;
46036;SDS011;31769;49.304;8.428;2023-09-19T06:59:33;4.88;;;1.70;;
46036;SDS011;31769;49.304;8.428;2023-09-19T07:02:33;3.30;;;1.60;;
46036;SDS011;31769;49.304;8.428;2023-09-19T07:05:34;3.33;;;1.50;;
46036;SDS011;31769;49.304;8.428;2023-09-19T07:08:38;5.68;;;1.58;;
46036;SDS011;31769;49.304;8.428;2023-09-19T07:11:39;6.03;;;1.63;;
46036;SDS011;31769;49.304;8.428;2023-09-19T07:14:40;5.65;;;1.52;;
46036;SDS011;31769;49.304;8.428;2023-09-19T07:17:41;7.93;;;1.45;;
46036;SDS011;31769;49.304;8.428;2023-09-19T07:20:42;4.70;;;1.60;;
46036;SDS011;31769;49.304;8.428;2023-09-19T07:23:50;5.75;;;1.48;;
46036;SDS011;31769;49.304;8.428;2023-09-19T07:26:51;4.65;;;1.70;;
46036;SDS011;31769;49.304;8.428;2023-09-19T07:29:51;4.20;;;1.83;;
46036;SDS011;31769;49.304;8.428;2023-09-19T07:32:53;3.92;;;1.33;;
46036;SDS011;31769;49.304;8.428;2023-09-19T07:35:54;5.88;;;1.35;;
46036;SDS011;31769;49.304;8.428;2023-09-19T07:38:55;4.78;;;1.60;;
46036;SDS011;31769;49.304;8.428;2023-09-19T07:41:57;3.88;;;1.20;;
46036;SDS011;31769;49.304;8.428;2023-09-19T07:44:58;4.50;;;1.67;;
46036;SDS011;31769;49.304;8.428;2023-09-19T07:48:00;4.88;;;1.40;;
46036;SDS011;31769;49.304;8.428;2023-09-19T07:51:04;3.90;;;1.30;;
46036;SDS011;31769;49.304;8.428;2023-09-19T07:54:06;4.10;;;1.15;;
46036;SDS011;31769;49.304;8.428;2023-09-19T07:57:08;3.47;;;1.15;;
46036;SDS011;31769;49.304;8.428;2023-09-19T08:00:09;2.90;;;1.10;;
46036;SDS011;31769;49.304;8.428;2023-09-19T08:03:13;3.58;;;0.85;;
46036;SDS011;31769;49.304;8.428;2023-09-19T08:06:14;5.10;;;1.02;;
46036;SDS011;31769;49.304;8.428;2023-09-19T08:09:17;3.40;;;0.93;;
46036;SDS011;31769;49.304;8.428;2023-09-19T08:12:20;3.63;;;1.30;;
46036;SDS011;31769;49.304;8.428;2023-09-19T08:15:24;5.38;;;1.30;;
46036;SDS011;31769;49.304;8.428;2023-09-19T08:18:25;5.20;;;0.85;;
46036;SDS011;31769;49.304;8.428;2023-09-19T08:21:26;3.30;;;1.05;;
46036;SDS011;31769;49.304;8.428;2023-09-19T08:24:30;6.57;;;1.15;;
46036;SDS011;31769;49.304;8.428;2023-09-19T08:27:30;5.13;;;1.20;;
46036;SDS011;31769;49.304;8.428;2023-09-19T08:30:31;4.30;;;1.02;;
46036;SDS011;31769;49.304;8.428;2023-09-19T08:33:35;4.60;;;1.08;;
46036;SDS011;31769;49.304;8.428;2023-09-19T08:36:36;4.88;;;1.20;;
46036;SDS011;31769;49.304;8.428;2023-09-19T08:39:38;4.07;;;0.85;;
46036;SDS011;31769;49.304;8.428;2023-09-19T08:42:49;4.28;;;1.10;;
46036;SDS011;31769;49.304;8.428;2023-09-19T08:45:57;2.78;;;1.00;;
46036;SDS011;31769;49.304;8.428;2023-09-19T08:49:04;3.58;;;1.17;;
46036;SDS011;31769;49.304;8.428;2023-09-19T08:52:10;2.95;;;0.88;;
46036;SDS011;31769;49.304;8.428;2023-09-19T08:55:28;3.08;;;1.08;;
46036;SDS011;31769;49.304;8.428;2023-09-19T08:58:31;3.15;;;1.30;;
46036;SDS011;31769;49.304;8.428;2023-09-19T09:01:40;2.97;;;0.85;;
46036;SDS011;31769;49.304;8.428;2023-09-19T09:04:43;3.17;;;1.00;;
46036;SDS011;31769;49.304;8.428;2023-09-19T09:07:44;5.75;;;1.20;;
46036;SDS011;31769;49.304;8.428;2023-09-19T09:10:45;3.08;;;1.08;;
46036;SDS011;31769;49.304;8.428;2023-09-19T09:13:46;6.57;;;1.25;;
46036;SDS011;31769;49.304;8.428;2023-09-19T09:16:47;3.00;;;1.10;;
46036;SDS011;31769;49.304;8.428;2023-09-19T09:19:48;5.40;;;1.10;;
46036;SDS011;31769;49.304;8.428;2023-09-19T09:22:53;4.28;;;1.15;;
46036;SDS011;31769;49.304;8.428;2023-09-19T09:25:55;4.72;;;1.05;;
46036;SDS011;31769;49.304;8.428;2023-09-19T09:28:56;6.30;;;1.25;;
46036;SDS011;31769;49.304;8.428;2023-09-19T09:31:57;3.40;;;1.20;;
46036;SDS011;31769;49.304;8.428;2023-09-19T09:35:18;5.20;;;1.48;;
46036;SDS011;31769;49.304;8.428;2023-09-19T09:38:21;3.00;;;1.20;;
46036;SDS011;31769;49.304;8.428;2023-09-19T09:44:39;7.03;;;1.10;;
46036;SDS011;31769;49.304;8.428;2023-09-19T09:47:44;5.90;;;1.15;;
46036;SDS011;31769;49.304;8.428;2023-09-19T09:50:58;5.32;;;0.90;;
46036;SDS011;31769;49.304;8.428;2023-09-19T09:54:13;3.55;;;1.05;;
46036;SDS011;31769;49.304;8.428;2023-09-19T09:57:18;3.40;;;1.38;;
46036;SDS011;31769;49.304;8.428;2023-09-19T10:00:24;5.43;;;1.05;;
46036;SDS011;31769;49.304;8.428;2023-09-19T10:03:36;4.80;;;1.10;;
46036;SDS011;31769;49.304;8.428;2023-09-19T10:06:43;3.08;;;1.08;;
46036;SDS011;31769;49.304;8.428;2023-09-19T10:09:48;4.57;;;1.10;;
46036;SDS011;31769;49.304;8.428;2023-09-19T10:12:48;4.10;;;1.48;;
46036;SDS011;31769;49.304;8.428;2023-09-19T10:15:55;2.75;;;1.27;;
46036;SDS011;31769;49.304;8.428;2023-09-19T10:18:59;4.95;;;1.13;;
46036;SDS011;31769;49.304;8.428;2023-09-19T10:22:07;7.43;;;1.30;;
46036;SDS011;31769;49.304;8.428;2023-09-19T10:25:10;4.88;;;1.17;;
46036;SDS011;31769;49.304;8.428;2023-09-19T10:28:13;3.63;;;0.90;;
46036;SDS011;31769;49.304;8.428;2023-09-19T10:31:17;3.42;;;1.20;;
46036;SDS011;31769;49.304;8.428;2023-09-19T10:34:20;3.88;;;1.13;;
46036;SDS011;31769;49.304;8.428;2023-09-19T10:37:23;4.70;;;1.00;;
46036;SDS011;31769;49.304;8.428;2023-09-19T10:40:27;4.70;;;1.25;;
46036;SDS011;31769;49.304;8.428;2023-09-19T10:43:32;5.22;;;1.23;;
46036;SDS011;31769;49.304;8.428;2023-09-19T10:46:33;4.75;;;0.90;;
46036;SDS011;31769;49.304;8.428;2023-09-19T10:49:33;3.92;;;0.90;;
46036;SDS011;31769;49.304;8.428;2023-09-19T10:52:34;3.13;;;1.00;;
46036;SDS011;31769;49.304;8.428;2023-09-19T10:55:42;2.75;;;0.80;;
46036;SDS011;31769;49.304;8.428;2023-09-19T10:59:10;2.53;;;0.60;;
46036;SDS011;31769;49.304;8.428;2023-09-19T11:02:16;4.60;;;1.00;;
46036;SDS011;31769;49.304;8.428;2023-09-19T11:05:18;3.95;;;1.08;;
46036;SDS011;31769;49.304;8.428;2023-09-19T11:08:20;1.73;;;0.70;;
46036;SDS011;31769;49.304;8.428;2023-09-19T11:11:38;3.85;;;0.80;;
46036;SDS011;31769;49.304;8.428;2023-09-19T11:14:40;2.22;;;0.77;;
46036;SDS011;31769;49.304;8.428;2023-09-19T11:17:42;4.38;;;1.42;;
46036;SDS011;31769;49.304;8.428;2023-09-19T11:20:47;4.00;;;1.05;;
46036;SDS011;31769;49.304;8.428;2023-09-19T11:27:14;4.10;;;0.75;;
46036;SDS011;31769;49.304;8.428;2023-09-19T11:30:25;1.90;;;0.68;;
46036;SDS011;31769;49.304;8.428;2023-09-19T11:36:37;2.78;;;0.82;;
46036;SDS011;31769;49.304;8.428;2023-09-19T11:39:38;2.05;;;0.65;;
46036;SDS011;31769;49.304;8.428;2023-09-19T11:42:42;4.10;;;0.60;;
46036;SDS011;31769;49.304;8.428;2023-09-19T11:49:07;3.42;;;0.55;;
46036;SDS011;31769;49.304;8.428;2023-09-19T11:52:20;2.22;;;0.68;;
46036;SDS011;31769;49.304;8.428;2023-09-19T11:55:25;4.32;;;0.52;;
46036;SDS011;31769;49.304;8.428;2023-09-19T11:58:30;3.50;;;0.75;;
46036;SDS011;31769;49.304;8.428;2023-09-19T12:01:33;8.07;;;0.70;;
46036;SDS011;31769;49.304;8.428;2023-09-19T12:04:35;3.72;;;0.60;;
46036;SDS011;31769;49.304;8.428;2023-09-19T12:07:43;4.03;;;0.82;;
46036;SDS011;31769;49.304;8.428;2023-09-19T12:10:48;4.20;;;0.73;;
46036;SDS011;31769;49.304;8.428;2023-09-19T12:13:51;3.50;;;0.50;;
46036;SDS011;31769;49.304;8.428;2023-09-19T12:16:53;2.20;;;0.45;;
46036;SDS011;31769;49.304;8.428;2023-09-19T12:19:56;1.38;;;0.50;;
46036;SDS011;31769;49.304;8.428;2023-09-19T12:22:57;1.35;;;0.50;;
46036;SDS011;31769;49.304;8.428;2023-09-19T12:25:58;3.00;;;0.63;;
46036;SDS011;31769;49.304;8.428;2023-09-19T12:29:02;5.00;;;0.68;;
46036;SDS011;31769;49.304;8.428;2023-09-19T12:32:05;3.03;;;0.52;;
46036;SDS011;31769;49.304;8.428;2023-09-19T12:35:06;1.98;;;0.50;;
46036;SDS011;31769;49.304;8.428;2023-09-19T12:38:26;3.00;;;0.40;;
46036;SDS011;31769;49.304;8.428;2023-09-19T12:41:35;2.72;;;0.60;;
46036;SDS011;31769;49.304;8.428;2023-09-19T12:44:37;2.92;;;0.75;;
46036;SDS011;31769;49.304;8.428;2023-09-19T12:51:44;1.08;;;0.30;;
46036;SDS011;31769;49.304;8.428;2023-09-19T12:54:46;1.85;;;0.50;;
46036;SDS011;31769;49.304;8.428;2023-09-19T12:58:00;0.75;;;0.30;;
46036;SDS011;31769;49.304;8.428;2023-09-19T13:01:15;3.20;;;0.63;;
46036;SDS011;31769;49.304;8.428;2023-09-19T13:07:40;1.95;;;0.70;;
46036;SDS011;31769;49.304;8.428;2023-09-19T13:17:42;2.03;;;0.50;;
46036;SDS011;31769;49.304;8.428;2023-09-19T13:20:43;13.35;;;3.95;;
46036;SDS011;31769;49.304;8.428;2023-09-19T13:24:23;2.40;;;0.50;;
46036;SDS011;31769;49.304;8.428;2023-09-19T13:27:28;1.45;;;0.40;;
46036;SDS011;31769;49.304;8.428;2023-09-19T13:30:28;1.70;;;0.40;;
46036;SDS011;31769;49.304;8.428;2023-09-19T13:33:29;1.35;;;0.40;;
46036;SDS011;31769;49.304;8.428;2023-09-19T13:36:30;2.72;;;0.50;;
46036;SDS011;31769;49.304;8.428;2023-09-19T13:39:31;1.45;;;0.30;;
46036;SDS011;31769;49.304;8.428;2023-09-19T13:42:32;2.75;;;0.50;;
46036;SDS011;31769;49.304;8.428;2023-09-19T13:45:32;1.52;;;0.40;;
46036;SDS011;31769;49.304;8.428;2023-09-19T13:48:34;1.50;;;0.50;;
46036;SDS011;31769;49.304;8.428;2023-09-19T13:51:35;4.13;;;0.38;;
46036;SDS011;31769;49.304;8.428;2023-09-19T13:54:36;1.13;;;0.32;;
46036;SDS011;31769;49.304;8.428;2023-09-19T13:57:36;1.40;;;0.20;;
46036;SDS011;31769;49.304;8.428;2023-09-19T14:00:37;1.75;;;0.40;;
46036;SDS011;31769;49.304;8.428;2023-09-19T14:03:41;1.02;;;0.50;;
46036;SDS011;31769;49.304;8.428;2023-09-19T14:06:47;1.63;;;0.25;;
46036;SDS011;31769;49.304;8.428;2023-09-19T14:09:47;2.22;;;0.30;;
46036;SDS011;31769;49.304;8.428;2023-09-19T14:12:48;5.25;;;0.43;;
46036;SDS011;31769;49.304;8.428;2023-09-19T14:15:48;1.02;;;0.25;;
46036;SDS011;31769;49.304;8.428;2023-09-19T14:18:49;2.00;;;0.32;;
46036;SDS011;31769;49.304;8.428;2023-09-19T14:21:50;1.35;;;0.30;;
46036;SDS011;31769;49.304;8.428;2023-09-19T14:24:51;2.33;;;0.32;;
46036;SDS011;31769;49.304;8.428;2023-09-19T14:27:52;3.63;;;0.20;;
46036;SDS011;31769;49.304;8.428;2023-09-19T14:30:53;0.93;;;0.30;;
46036;SDS011;31769;49.304;8.428;2023-09-19T14:33:54;1.17;;;0.30;;
46036;SDS011;31769;49.304;8.428;2023-09-19T14:36:56;1.85;;;0.32;;
46036;SDS011;31769;49.304;8.428;2023-09-19T14:39:57;2.25;;;0.30;;
46036;SDS011;31769;49.304;8.428;2023-09-19T14:42:58;1.38;;;0.20;;
46036;SDS011;31769;49.304;8.428;2023-09-19T14:46:05;1.67;;;0.40;;
46036;SDS011;31769;49.304;8.428;2023-09-19T14:49:07;2.60;;;0.40;;
46036;SDS011;31769;49.304;8.428;2023-09-19T14:52:11;1.25;;;0.20;;
46036;SDS011;31769;49.304;8.428;2023-09-19T14:55:15;2.25;;;0.35;;
46036;SDS011;31769;49.304;8.428;2023-09-19T14:58:16;1.33;;;0.30;;
46036;SDS011;31769;49.304;8.428;2023-09-19T15:01:17;1.20;;;0.43;;
46036;SDS011;31769;49.304;8.428;2023-09-19T15:04:18;3.67;;;0.43;;
46036;SDS011;31769;49.304;8.428;2023-09-19T15:07:18;2.15;;;0.60;;
46036;SDS011;31769;49.304;8.428;2023-09-19T15:10:19;1.75;;;0.35;;
46036;SDS011;31769;49.304;8.428;2023-09-19T15:13:22;2.20;;;0.45;;
46036;SDS011;31769;49.304;8.428;2023-09-19T15:16:23;1.33;;;0.40;;
46036;SDS011;31769;49.304;8.428;2023-09-19T15:19:24;3.10;;;0.38;;
46036;SDS011;31769;49.304;8.428;2023-09-19T15:22:25;3.75;;;0.50;;
46036;SDS011;31769;49.304;8.428;2023-09-19T15:25:27;3.17;;;0.45;;
46036;SDS011;31769;49.304;8.428;2023-09-19T15:28:28;1.73;;;0.57;;
46036;SDS011;31769;49.304;8.428;2023-09-19T15:31:30;1.52;;;0.38;;
46036;SDS011;31769;49.304;8.428;2023-09-19T15:34:31;1.15;;;0.30;;
46036;SDS011;31769;49.304;8.428;2023-09-19T15:37:31;1.23;;;0.40;;
46036;SDS011;31769;49.304;8.428;2023-09-19T15:40:32;1.08;;;0.30;;
46036;SDS011;31769;49.304;8.428;2023-09-19T15:43:32;0.70;;;0.30;;
46036;SDS011;31769;49.304;8.428;2023-09-19T15:46:34;0.98;;;0.30;;
46036;SDS011;31769;49.304;8.428;2023-09-19T15:49:35;1.45;;;0.40;;
46036;SDS011;31769;49.304;8.428;2023-09-19T15:52:36;1.80;;;0.38;;
46036;SDS011;31769;49.304;8.428;2023-09-19T15:55:40;1.55;;;0.20;;
46036;SDS011;31769;49.304;8.428;2023-09-19T15:58:41;1.75;;;0.32;;
46036;SDS011;31769;49.304;8.428;2023-09-19T16:01:44;1.45;;;0.32;;
46036;SDS011;31769;49.304;8.428;2023-09-19T16:04:45;0.55;;;0.30;;
46036;SDS011;31769;49.304;8.428;2023-09-19T16:07:45;0.82;;;0.40;;
46036;SDS011;31769;49.304;8.428;2023-09-19T16:10:47;1.80;;;0.40;;
46036;SDS011;31769;49.304;8.428;2023-09-19T16:13:48;1.10;;;0.30;;
46036;SDS011;31769;49.304;8.428;2023-09-19T16:16:50;2.58;;;0.38;;
46036;SDS011;31769;49.304;8.428;2023-09-19T16:19:51;1.85;;;1.00;;
46036;SDS011;31769;49.304;8.428;2023-09-19T16:22:51;1.90;;;0.28;;
46036;SDS011;31769;49.304;8.428;2023-09-19T16:26:02;1.30;;;0.32;;
46036;SDS011;31769;49.304;8.428;2023-09-19T16:29:09;1.85;;;0.30;;
46036;SDS011;31769;49.304;8.428;2023-09-19T16:32:10;1.00;;;0.30;;
46036;SDS011;31769;49.304;8.428;2023-09-19T16:35:11;1.42;;;0.28;;
46036;SDS011;31769;49.304;8.428;2023-09-19T16:38:13;0.50;;;0.25;;
46036;SDS011;31769;49.304;8.428;2023-09-19T16:41:13;2.97;;;0.30;;
46036;SDS011;31769;49.304;8.428;2023-09-19T16:44:15;1.05;;;0.20;;
46036;SDS011;31769;49.304;8.428;2023-09-19T16:47:16;0.95;;;0.20;;
46036;SDS011;31769;49.304;8.428;2023-09-19T16:50:17;2.22;;;0.30;;
46036;SDS011;31769;49.304;8.428;2023-09-19T16:53:17;2.58;;;0.47;;
46036;SDS011;31769;49.304;8.428;2023-09-19T16:56:18;0.75;;;0.30;;
46036;SDS011;31769;49.304;8.428;2023-09-19T16:59:19;1.00;;;0.30;;
46036;SDS011;31769;49.304;8.428;2023-09-19T17:02:23;2.58;;;0.30;;
46036;SDS011;31769;49.304;8.428;2023-09-19T17:05:24;0.80;;;0.20;;
46036;SDS011;31769;49.304;8.428;2023-09-19T17:08:27;1.05;;;0.30;;
46036;SDS011;31769;49.304;8.428;2023-09-19T17:11:28;1.13;;;0.50;;
46036;SDS011;31769;49.304;8.428;2023-09-19T17:14:29;3.45;;;0.50;;
46036;SDS011;31769;49.304;8.428;2023-09-19T17:17:33;1.98;;;0.47;;
46036;SDS011;31769;49.304;8.428;2023-09-19T17:20:34;1.08;;;0.35;;
46036;SDS011;31769;49.304;8.428;2023-09-19T17:23:41;2.85;;;0.38;;
46036;SDS011;31769;49.304;8.428;2023-09-19T17:26:42;2.70;;;0.70;;
46036;SDS011;31769;49.304;8.428;2023-09-19T17:29:43;1.05;;;0.40;;
46036;SDS011;31769;49.304;8.428;2023-09-19T17:32:44;1.67;;;0.40;;
46036;SDS011;31769;49.304;8.428;2023-09-19T17:35:45;1.15;;;0.52;;
46036;SDS011;31769;49.304;8.428;2023-09-19T17:38:47;3.40;;;0.55;;
46036;SDS011;31769;49.304;8.428;2023-09-19T17:41:49;2.25;;;0.75;;
46036;SDS011;31769;49.304;8.428;2023-09-19T17:44:49;5.55;;;1.15;;
46036;SDS011;31769;49.304;8.428;2023-09-19T17:47:51;3.20;;;1.00;;
46036;SDS011;31769;49.304;8.428;2023-09-19T17:50:58;6.65;;;0.90;;
46036;SDS011;31769;49.304;8.428;2023-09-19T17:54:03;4.22;;;1.08;;
46036;SDS011;31769;49.304;8.428;2023-09-19T17:57:04;1.52;;;0.75;;
46036;SDS011;31769;49.304;8.428;2023-09-19T18:00:05;2.47;;;0.82;;
46036;SDS011;31769;49.304;8.428;2023-09-19T18:03:11;1.83;;;0.50;;
46036;SDS011;31769;49.304;8.428;2023-09-19T18:06:13;4.13;;;0.70;;
46036;SDS011;31769;49.304;8.428;2023-09-19T18:09:14;4.88;;;0.98;;
46036;SDS011;31769;49.304;8.428;2023-09-19T18:12:18;2.78;;;0.60;;
46036;SDS011;31769;49.304;8.428;2023-09-19T18:15:18;1.40;;;0.52;;
46036;SDS011;31769;49.304;8.428;2023-09-19T18:18:19;3.00;;;0.70;;
46036;SDS011;31769;49.304;8.428;2023-09-19T18:21:21;3.78;;;0.65;;
46036;SDS011;31769;49.304;8.428;2023-09-19T18:24:23;1.95;;;1.05;;
46036;SDS011;31769;49.304;8.428;2023-09-19T18:27:23;2.15;;;0.98;;
46036;SDS011;31769;49.304;8.428;2023-09-19T18:30:24;4.50;;;1.15;;
46036;SDS011;31769;49.304;8.428;2023-09-19T18:33:25;6.63;;;1.02;;
46036;SDS011;31769;49.304;8.428;2023-09-19T18:36:29;8.35;;;1.00;;
46036;SDS011;31769;49.304;8.428;2023-09-19T18:39:32;3.80;;;0.82;;
46036;SDS011;31769;49.304;8.428;2023-09-19T18:42:34;5.22;;;0.82;;
46036;SDS011;31769;49.304;8.428;2023-09-19T18:45:35;3.60;;;0.85;;
46036;SDS011;31769;49.304;8.428;2023-09-19T18:48:39;2.83;;;0.82;;
46036;SDS011;31769;49.304;8.428;2023-09-19T18:51:47;3.47;;;1.17;;
46036;SDS011;31769;49.304;8.428;2023-09-19T18:54:48;2.05;;;1.10;;
46036;SDS011;31769;49.304;8.428;2023-09-19T18:57:52;4.60;;;0.80;;
46036;SDS011;31769;49.304;8.428;2023-09-19T19:00:58;2.25;;;0.90;;